sensor_id;sensor_type;location;lat;lon;timestamp;P1;durP1;ratioP1;P2;durP2;ratioP2
59486;SDS011;45298;54.918;73.504;2022-09-14T00:01:42;5.00;;;2.55;;
59486;SDS011;45298;54.918;73.504;2022-09-14T00:04:15;3.85;;;2.08;;
59486;SDS011;45298;54.918;73.504;2022-09-14T00:06:45;5.33;;;2.10;;
59486;SDS011;45298;54.918;73.504;2022-09-14T00:09:20;4.57;;;2.80;;
59486;SDS011;45298;54.918;73.504;2022-09-14T00:11:50;4.03;;;2.20;;
59486;SDS011;45298;54.918;73.504;2022-09-14T00:14:22;4.78;;;2.30;;
59486;SDS011;45298;54.918;73.504;2022-09-14T00:16:51;11.18;;;2.40;;
59486;SDS011;45298;54.918;73.504;2022-09-14T00:19:21;3.53;;;2.33;;
59486;SDS011;45298;54.918;73.504;2022-09-14T00:21:53;4.90;;;2.20;;
59486;SDS011;45298;54.918;73.504;2022-09-14T00:24:24;4.25;;;2.33;;
59486;SDS011;45298;54.918;73.504;2022-09-14T00:26:55;5.30;;;2.35;;
59486;SDS011;45298;54.918;73.504;2022-09-14T00:29:24;4.82;;;2.30;;
59486;SDS011;45298;54.918;73.504;2022-09-14T00:31:53;4.30;;;2.40;;
59486;SDS011;45298;54.918;73.504;2022-09-14T00:34:22;4.18;;;2.70;;
59486;SDS011;45298;54.918;73.504;2022-09-14T00:36:51;21.63;;;10.90;;
59486;SDS011;45298;54.918;73.504;2022-09-14T00:39:21;71.28;;;20.00;;
59486;SDS011;45298;54.918;73.504;2022-09-14T00:41:51;66.20;;;32.53;;
59486;SDS011;45298;54.918;73.504;2022-09-14T00:46:53;31.98;;;12.98;;
59486;SDS011;45298;54.918;73.504;2022-09-14T00:49:31;19.60;;;9.93;;
59486;SDS011;45298;54.918;73.504;2022-09-14T00:52:06;14.32;;;6.25;;
59486;SDS011;45298;54.918;73.504;2022-09-14T00:54:49;12.90;;;6.95;;
59486;SDS011;45298;54.918;73.504;2022-09-14T00:57:20;17.92;;;8.15;;
59486;SDS011;45298;54.918;73.504;2022-09-14T00:59:51;16.45;;;8.43;;
59486;SDS011;45298;54.918;73.504;2022-09-14T01:02:21;21.98;;;9.65;;
59486;SDS011;45298;54.918;73.504;2022-09-14T01:04:51;20.98;;;10.27;;
59486;SDS011;45298;54.918;73.504;2022-09-14T01:07:38;14.77;;;8.18;;
59486;SDS011;45298;54.918;73.504;2022-09-14T01:10:19;13.35;;;6.38;;
59486;SDS011;45298;54.918;73.504;2022-09-14T01:15:44;13.05;;;6.05;;
59486;SDS011;45298;54.918;73.504;2022-09-14T01:20:59;11.40;;;5.97;;
59486;SDS011;45298;54.918;73.504;2022-09-14T01:23:49;13.13;;;7.25;;
59486;SDS011;45298;54.918;73.504;2022-09-14T01:31:48;4.85;;;2.40;;
59486;SDS011;45298;54.918;73.504;2022-09-14T01:35:00;5.22;;;2.17;;
59486;SDS011;45298;54.918;73.504;2022-09-14T01:37:49;6.80;;;2.08;;
59486;SDS011;45298;54.918;73.504;2022-09-14T01:42:58;33.63;;;2.85;;
59486;SDS011;45298;54.918;73.504;2022-09-14T01:45:38;6.25;;;3.00;;
59486;SDS011;45298;54.918;73.504;2022-09-14T01:48:12;9.57;;;3.53;;
59486;SDS011;45298;54.918;73.504;2022-09-14T01:50:44;7.43;;;4.07;;
59486;SDS011;45298;54.918;73.504;2022-09-14T01:56:06;5.63;;;1.95;;
59486;SDS011;45298;54.918;73.504;2022-09-14T02:01:06;8.07;;;2.85;;
59486;SDS011;45298;54.918;73.504;2022-09-14T02:03:47;6.82;;;2.60;;
59486;SDS011;45298;54.918;73.504;2022-09-14T02:08:52;9.02;;;3.17;;
59486;SDS011;45298;54.918;73.504;2022-09-14T02:11:21;16.08;;;8.18;;
59486;SDS011;45298;54.918;73.504;2022-09-14T02:13:50;8.68;;;4.75;;
59486;SDS011;45298;54.918;73.504;2022-09-14T02:16:19;19.27;;;8.02;;
59486;SDS011;45298;54.918;73.504;2022-09-14T02:18:50;16.65;;;5.95;;
59486;SDS011;45298;54.918;73.504;2022-09-14T02:21:24;16.48;;;6.43;;
59486;SDS011;45298;54.918;73.504;2022-09-14T02:23:54;23.65;;;10.27;;
59486;SDS011;45298;54.918;73.504;2022-09-14T02:26:24;17.30;;;7.68;;
59486;SDS011;45298;54.918;73.504;2022-09-14T02:28:54;15.13;;;6.45;;
59486;SDS011;45298;54.918;73.504;2022-09-14T02:34:33;30.27;;;7.97;;
59486;SDS011;45298;54.918;73.504;2022-09-14T02:37:25;36.72;;;8.02;;
59486;SDS011;45298;54.918;73.504;2022-09-14T02:43:30;25.85;;;9.73;;
59486;SDS011;45298;54.918;73.504;2022-09-14T02:46:18;25.27;;;11.27;;
59486;SDS011;45298;54.918;73.504;2022-09-14T02:57:22;32.85;;;13.43;;
59486;SDS011;45298;54.918;73.504;2022-09-14T02:59:54;28.85;;;13.50;;
59486;SDS011;45298;54.918;73.504;2022-09-14T03:02:23;29.38;;;13.27;;
59486;SDS011;45298;54.918;73.504;2022-09-14T03:04:51;28.25;;;12.10;;
59486;SDS011;45298;54.918;73.504;2022-09-14T03:07:20;27.10;;;12.48;;
59486;SDS011;45298;54.918;73.504;2022-09-14T03:09:48;24.90;;;10.60;;
59486;SDS011;45298;54.918;73.504;2022-09-14T03:12:17;23.75;;;10.50;;
59486;SDS011;45298;54.918;73.504;2022-09-14T03:14:46;34.42;;;11.70;;
59486;SDS011;45298;54.918;73.504;2022-09-14T03:17:15;25.25;;;10.73;;
59486;SDS011;45298;54.918;73.504;2022-09-14T03:19:43;30.63;;;10.43;;
59486;SDS011;45298;54.918;73.504;2022-09-14T03:22:12;21.67;;;9.43;;
59486;SDS011;45298;54.918;73.504;2022-09-14T03:24:41;23.08;;;9.98;;
59486;SDS011;45298;54.918;73.504;2022-09-14T03:27:09;26.58;;;9.52;;
59486;SDS011;45298;54.918;73.504;2022-09-14T03:29:38;28.90;;;9.65;;
59486;SDS011;45298;54.918;73.504;2022-09-14T03:32:07;20.20;;;8.75;;
59486;SDS011;45298;54.918;73.504;2022-09-14T03:34:38;21.67;;;8.40;;
59486;SDS011;45298;54.918;73.504;2022-09-14T03:37:06;28.85;;;8.27;;
59486;SDS011;45298;54.918;73.504;2022-09-14T03:39:35;23.20;;;8.18;;
59486;SDS011;45298;54.918;73.504;2022-09-14T03:42:04;25.33;;;7.93;;
59486;SDS011;45298;54.918;73.504;2022-09-14T03:44:33;18.02;;;7.43;;
59486;SDS011;45298;54.918;73.504;2022-09-14T03:47:01;19.13;;;7.30;;
59486;SDS011;45298;54.918;73.504;2022-09-14T03:49:30;22.60;;;7.50;;
59486;SDS011;45298;54.918;73.504;2022-09-14T03:51:59;19.90;;;7.45;;
59486;SDS011;45298;54.918;73.504;2022-09-14T03:54:27;26.40;;;7.70;;
59486;SDS011;45298;54.918;73.504;2022-09-14T03:56:56;20.92;;;6.30;;
59486;SDS011;45298;54.918;73.504;2022-09-14T03:59:25;21.92;;;6.72;;
59486;SDS011;45298;54.918;73.504;2022-09-14T04:01:53;17.85;;;7.03;;
59486;SDS011;45298;54.918;73.504;2022-09-14T04:04:23;16.42;;;7.07;;
59486;SDS011;45298;54.918;73.504;2022-09-14T04:06:51;20.63;;;7.78;;
59486;SDS011;45298;54.918;73.504;2022-09-14T04:09:20;26.27;;;8.23;;
59486;SDS011;45298;54.918;73.504;2022-09-14T04:11:48;16.23;;;7.93;;
59486;SDS011;45298;54.918;73.504;2022-09-14T04:14:17;19.83;;;7.90;;
59486;SDS011;45298;54.918;73.504;2022-09-14T04:16:46;21.27;;;8.00;;
59486;SDS011;45298;54.918;73.504;2022-09-14T04:19:15;19.80;;;8.15;;
59486;SDS011;45298;54.918;73.504;2022-09-14T04:21:44;17.00;;;7.63;;
59486;SDS011;45298;54.918;73.504;2022-09-14T04:24:13;27.38;;;7.32;;
59486;SDS011;45298;54.918;73.504;2022-09-14T04:26:43;17.70;;;7.20;;
59486;SDS011;45298;54.918;73.504;2022-09-14T04:29:12;23.40;;;7.63;;
59486;SDS011;45298;54.918;73.504;2022-09-14T04:31:41;23.33;;;8.48;;
59486;SDS011;45298;54.918;73.504;2022-09-14T04:34:11;24.85;;;8.60;;
59486;SDS011;45298;54.918;73.504;2022-09-14T04:36:42;24.90;;;9.38;;
59486;SDS011;45298;54.918;73.504;2022-09-14T04:39:11;20.30;;;7.18;;
59486;SDS011;45298;54.918;73.504;2022-09-14T04:41:43;29.15;;;8.02;;
59486;SDS011;45298;54.918;73.504;2022-09-14T04:44:12;29.70;;;8.77;;
59486;SDS011;45298;54.918;73.504;2022-09-14T04:46:41;24.73;;;7.80;;
59486;SDS011;45298;54.918;73.504;2022-09-14T04:49:14;25.98;;;7.68;;
59486;SDS011;45298;54.918;73.504;2022-09-14T04:51:46;25.83;;;7.93;;
59486;SDS011;45298;54.918;73.504;2022-09-14T04:54:15;24.13;;;5.97;;
59486;SDS011;45298;54.918;73.504;2022-09-14T04:56:45;24.42;;;6.25;;
59486;SDS011;45298;54.918;73.504;2022-09-14T04:59:14;18.45;;;4.97;;
59486;SDS011;45298;54.918;73.504;2022-09-14T05:01:44;19.60;;;4.85;;
59486;SDS011;45298;54.918;73.504;2022-09-14T05:04:16;14.98;;;4.22;;
59486;SDS011;45298;54.918;73.504;2022-09-14T05:06:45;19.95;;;4.80;;
59486;SDS011;45298;54.918;73.504;2022-09-14T05:09:17;17.90;;;4.88;;
59486;SDS011;45298;54.918;73.504;2022-09-14T05:11:46;16.60;;;4.63;;
59486;SDS011;45298;54.918;73.504;2022-09-14T05:14:16;16.52;;;5.00;;
59486;SDS011;45298;54.918;73.504;2022-09-14T05:16:45;14.23;;;4.60;;
59486;SDS011;45298;54.918;73.504;2022-09-14T05:19:15;13.48;;;4.60;;
59486;SDS011;45298;54.918;73.504;2022-09-14T05:21:45;14.43;;;5.00;;
59486;SDS011;45298;54.918;73.504;2022-09-14T05:24:15;14.30;;;4.78;;
59486;SDS011;45298;54.918;73.504;2022-09-14T05:26:45;16.50;;;5.50;;
59486;SDS011;45298;54.918;73.504;2022-09-14T05:29:15;18.95;;;6.10;;
59486;SDS011;45298;54.918;73.504;2022-09-14T05:31:45;16.52;;;5.60;;
59486;SDS011;45298;54.918;73.504;2022-09-14T05:34:15;20.30;;;6.20;;
59486;SDS011;45298;54.918;73.504;2022-09-14T05:36:44;12.98;;;5.57;;
59486;SDS011;45298;54.918;73.504;2022-09-14T05:39:13;15.80;;;6.43;;
59486;SDS011;45298;54.918;73.504;2022-09-14T05:41:49;17.73;;;6.47;;
59486;SDS011;45298;54.918;73.504;2022-09-14T05:44:18;15.95;;;5.72;;
59486;SDS011;45298;54.918;73.504;2022-09-14T05:46:46;17.33;;;5.43;;
59486;SDS011;45298;54.918;73.504;2022-09-14T05:49:15;14.50;;;5.65;;
59486;SDS011;45298;54.918;73.504;2022-09-14T05:51:44;13.68;;;5.53;;
59486;SDS011;45298;54.918;73.504;2022-09-14T05:54:13;15.73;;;4.85;;
59486;SDS011;45298;54.918;73.504;2022-09-14T05:56:42;10.50;;;4.88;;
59486;SDS011;45298;54.918;73.504;2022-09-14T05:59:10;9.80;;;4.65;;
59486;SDS011;45298;54.918;73.504;2022-09-14T06:01:39;15.40;;;5.18;;
59486;SDS011;45298;54.918;73.504;2022-09-14T06:04:08;15.68;;;4.32;;
59486;SDS011;45298;54.918;73.504;2022-09-14T06:06:40;11.68;;;4.15;;
59486;SDS011;45298;54.918;73.504;2022-09-14T06:09:29;9.02;;;3.58;;
59486;SDS011;45298;54.918;73.504;2022-09-14T06:11:59;7.43;;;3.30;;
59486;SDS011;45298;54.918;73.504;2022-09-14T06:14:28;12.65;;;4.22;;
59486;SDS011;45298;54.918;73.504;2022-09-14T06:16:56;13.80;;;4.38;;
59486;SDS011;45298;54.918;73.504;2022-09-14T06:19:25;12.70;;;4.50;;
59486;SDS011;45298;54.918;73.504;2022-09-14T06:21:54;20.13;;;4.10;;
59486;SDS011;45298;54.918;73.504;2022-09-14T06:24:22;8.63;;;3.08;;
59486;SDS011;45298;54.918;73.504;2022-09-14T06:26:52;9.10;;;4.35;;
59486;SDS011;45298;54.918;73.504;2022-09-14T06:29:20;14.85;;;4.28;;
59486;SDS011;45298;54.918;73.504;2022-09-14T06:31:49;15.45;;;5.22;;
59486;SDS011;45298;54.918;73.504;2022-09-14T06:34:18;12.85;;;4.80;;
59486;SDS011;45298;54.918;73.504;2022-09-14T06:36:46;15.77;;;8.35;;
59486;SDS011;45298;54.918;73.504;2022-09-14T06:39:15;13.00;;;4.95;;
59486;SDS011;45298;54.918;73.504;2022-09-14T06:41:44;12.85;;;3.90;;
59486;SDS011;45298;54.918;73.504;2022-09-14T06:44:18;14.55;;;3.78;;
59486;SDS011;45298;54.918;73.504;2022-09-14T06:46:46;22.67;;;12.65;;
59486;SDS011;45298;54.918;73.504;2022-09-14T06:49:15;21.48;;;7.70;;
59486;SDS011;45298;54.918;73.504;2022-09-14T06:51:47;13.00;;;3.78;;
59486;SDS011;45298;54.918;73.504;2022-09-14T06:54:17;8.45;;;3.05;;
59486;SDS011;45298;54.918;73.504;2022-09-14T06:56:46;10.73;;;3.40;;
59486;SDS011;45298;54.918;73.504;2022-09-14T06:59:16;14.32;;;2.95;;
59486;SDS011;45298;54.918;73.504;2022-09-14T07:01:45;9.77;;;3.38;;
59486;SDS011;45298;54.918;73.504;2022-09-14T07:04:16;7.80;;;3.08;;
59486;SDS011;45298;54.918;73.504;2022-09-14T07:06:46;20.45;;;3.80;;
59486;SDS011;45298;54.918;73.504;2022-09-14T07:09:17;5.20;;;2.22;;
59486;SDS011;45298;54.918;73.504;2022-09-14T07:11:46;9.77;;;4.05;;
59486;SDS011;45298;54.918;73.504;2022-09-14T07:14:16;9.45;;;2.72;;
59486;SDS011;45298;54.918;73.504;2022-09-14T07:16:47;6.00;;;2.60;;
59486;SDS011;45298;54.918;73.504;2022-09-14T07:19:16;19.15;;;8.75;;
59486;SDS011;45298;54.918;73.504;2022-09-14T07:21:44;5.78;;;2.45;;
59486;SDS011;45298;54.918;73.504;2022-09-14T07:24:14;10.77;;;2.92;;
59486;SDS011;45298;54.918;73.504;2022-09-14T07:26:43;14.32;;;2.58;;
59486;SDS011;45298;54.918;73.504;2022-09-14T07:29:16;6.10;;;2.42;;
59486;SDS011;45298;54.918;73.504;2022-09-14T07:31:47;7.85;;;2.65;;
59486;SDS011;45298;54.918;73.504;2022-09-14T07:34:18;10.98;;;4.10;;
59486;SDS011;45298;54.918;73.504;2022-09-14T07:36:47;7.13;;;2.80;;
59486;SDS011;45298;54.918;73.504;2022-09-14T07:39:16;7.03;;;2.83;;
59486;SDS011;45298;54.918;73.504;2022-09-14T07:41:44;5.18;;;2.42;;
59486;SDS011;45298;54.918;73.504;2022-09-14T07:44:14;3.47;;;2.15;;
59486;SDS011;45298;54.918;73.504;2022-09-14T07:46:44;4.32;;;1.92;;
59486;SDS011;45298;54.918;73.504;2022-09-14T07:49:14;7.25;;;2.20;;
59486;SDS011;45298;54.918;73.504;2022-09-14T07:51:44;9.02;;;3.85;;
59486;SDS011;45298;54.918;73.504;2022-09-14T07:54:13;5.40;;;2.47;;
59486;SDS011;45298;54.918;73.504;2022-09-14T07:56:47;5.40;;;2.88;;
59486;SDS011;45298;54.918;73.504;2022-09-14T07:59:17;5.30;;;2.20;;
59486;SDS011;45298;54.918;73.504;2022-09-14T08:02:04;10.55;;;3.10;;
59486;SDS011;45298;54.918;73.504;2022-09-14T08:04:34;7.88;;;3.90;;
59486;SDS011;45298;54.918;73.504;2022-09-14T08:07:04;4.75;;;2.60;;
59486;SDS011;45298;54.918;73.504;2022-09-14T08:09:33;6.93;;;1.90;;
59486;SDS011;45298;54.918;73.504;2022-09-14T08:12:01;5.30;;;2.00;;
59486;SDS011;45298;54.918;73.504;2022-09-14T08:14:31;3.92;;;1.70;;
59486;SDS011;45298;54.918;73.504;2022-09-14T08:16:59;5.68;;;2.20;;
59486;SDS011;45298;54.918;73.504;2022-09-14T08:19:28;5.78;;;2.30;;
59486;SDS011;45298;54.918;73.504;2022-09-14T08:21:57;4.07;;;2.08;;
59486;SDS011;45298;54.918;73.504;2022-09-14T08:24:25;11.23;;;2.28;;
59486;SDS011;45298;54.918;73.504;2022-09-14T08:26:53;9.55;;;2.47;;
59486;SDS011;45298;54.918;73.504;2022-09-14T08:29:22;10.90;;;2.60;;
59486;SDS011;45298;54.918;73.504;2022-09-14T08:31:51;6.97;;;2.28;;
59486;SDS011;45298;54.918;73.504;2022-09-14T08:34:19;6.93;;;1.80;;
59486;SDS011;45298;54.918;73.504;2022-09-14T08:36:48;10.38;;;2.78;;
59486;SDS011;45298;54.918;73.504;2022-09-14T08:39:18;7.47;;;2.63;;
59486;SDS011;45298;54.918;73.504;2022-09-14T08:41:57;6.22;;;2.92;;
59486;SDS011;45298;54.918;73.504;2022-09-14T08:47:10;16.40;;;2.60;;
59486;SDS011;45298;54.918;73.504;2022-09-14T08:49:46;10.18;;;2.40;;
59486;SDS011;45298;54.918;73.504;2022-09-14T08:52:21;8.77;;;2.60;;
59486;SDS011;45298;54.918;73.504;2022-09-14T08:54:53;9.40;;;3.15;;
59486;SDS011;45298;54.918;73.504;2022-09-14T08:57:26;6.93;;;2.40;;
59486;SDS011;45298;54.918;73.504;2022-09-14T09:00:21;8.88;;;2.55;;
59486;SDS011;45298;54.918;73.504;2022-09-14T09:11:01;10.07;;;2.08;;
59486;SDS011;45298;54.918;73.504;2022-09-14T09:13:34;3.67;;;1.80;;
59486;SDS011;45298;54.918;73.504;2022-09-14T09:16:06;5.60;;;1.97;;
59486;SDS011;45298;54.918;73.504;2022-09-14T09:18:44;6.78;;;2.10;;
59486;SDS011;45298;54.918;73.504;2022-09-14T09:21:34;6.97;;;1.80;;
59486;SDS011;45298;54.918;73.504;2022-09-14T09:24:26;11.82;;;2.03;;
59486;SDS011;45298;54.918;73.504;2022-09-14T09:27:12;7.10;;;1.60;;
59486;SDS011;45298;54.918;73.504;2022-09-14T09:29:43;3.55;;;1.60;;
59486;SDS011;45298;54.918;73.504;2022-09-14T09:32:19;5.55;;;2.60;;
59486;SDS011;45298;54.918;73.504;2022-09-14T09:34:50;7.03;;;2.20;;
59486;SDS011;45298;54.918;73.504;2022-09-14T09:37:29;6.63;;;2.60;;
59486;SDS011;45298;54.918;73.504;2022-09-14T09:40:02;5.35;;;1.80;;
59486;SDS011;45298;54.918;73.504;2022-09-14T09:48:24;5.80;;;1.75;;
59486;SDS011;45298;54.918;73.504;2022-09-14T09:53:53;7.22;;;2.90;;
59486;SDS011;45298;54.918;73.504;2022-09-14T09:56:34;11.35;;;2.90;;
59486;SDS011;45298;54.918;73.504;2022-09-14T09:59:20;6.97;;;2.40;;
59486;SDS011;45298;54.918;73.504;2022-09-14T10:01:55;8.15;;;1.83;;
59486;SDS011;45298;54.918;73.504;2022-09-14T10:05:00;4.07;;;1.80;;
59486;SDS011;45298;54.918;73.504;2022-09-14T10:07:33;9.50;;;1.90;;
59486;SDS011;45298;54.918;73.504;2022-09-14T10:10:08;5.55;;;2.10;;
59486;SDS011;45298;54.918;73.504;2022-09-14T10:12:49;5.43;;;2.00;;
59486;SDS011;45298;54.918;73.504;2022-09-14T10:15:28;5.55;;;1.88;;
59486;SDS011;45298;54.918;73.504;2022-09-14T10:20:36;14.98;;;1.80;;
59486;SDS011;45298;54.918;73.504;2022-09-14T10:23:26;5.05;;;1.35;;
59486;SDS011;45298;54.918;73.504;2022-09-14T10:28:44;5.63;;;1.38;;
59486;SDS011;45298;54.918;73.504;2022-09-14T10:33:47;5.75;;;1.98;;
59486;SDS011;45298;54.918;73.504;2022-09-14T10:36:23;19.55;;;7.50;;
59486;SDS011;45298;54.918;73.504;2022-09-14T10:50:36;4.40;;;1.50;;
59486;SDS011;45298;54.918;73.504;2022-09-14T11:01:08;2.93;;;1.63;;
59486;SDS011;45298;54.918;73.504;2022-09-14T11:13:11;6.38;;;1.60;;
59486;SDS011;45298;54.918;73.504;2022-09-14T11:18:56;35.53;;;22.80;;
59486;SDS011;45298;54.918;73.504;2022-09-14T11:26:58;10.55;;;3.53;;
59486;SDS011;45298;54.918;73.504;2022-09-14T11:29:51;11.50;;;5.25;;
59486;SDS011;45298;54.918;73.504;2022-09-14T11:32:27;13.15;;;4.20;;
59486;SDS011;45298;54.918;73.504;2022-09-14T11:35:00;20.65;;;6.22;;
59486;SDS011;45298;54.918;73.504;2022-09-14T11:37:40;16.50;;;5.82;;
59486;SDS011;45298;54.918;73.504;2022-09-14T11:40:15;11.77;;;5.22;;
59486;SDS011;45298;54.918;73.504;2022-09-14T11:45:44;9.48;;;4.57;;
59486;SDS011;45298;54.918;73.504;2022-09-14T11:48:21;18.13;;;9.02;;
59486;SDS011;45298;54.918;73.504;2022-09-14T11:51:12;24.25;;;11.20;;
59486;SDS011;45298;54.918;73.504;2022-09-14T11:53:46;15.18;;;4.85;;
59486;SDS011;45298;54.918;73.504;2022-09-14T11:56:26;22.40;;;7.15;;
59486;SDS011;45298;54.918;73.504;2022-09-14T11:59:03;16.95;;;5.82;;
59486;SDS011;45298;54.918;73.504;2022-09-14T12:01:40;18.35;;;7.50;;
59486;SDS011;45298;54.918;73.504;2022-09-14T12:04:13;17.60;;;4.80;;
59486;SDS011;45298;54.918;73.504;2022-09-14T12:06:46;17.98;;;5.40;;
59486;SDS011;45298;54.918;73.504;2022-09-14T12:11:57;15.48;;;6.50;;
59486;SDS011;45298;54.918;73.504;2022-09-14T12:14:30;29.63;;;15.52;;
59486;SDS011;45298;54.918;73.504;2022-09-14T12:17:17;26.25;;;12.55;;
59486;SDS011;45298;54.918;73.504;2022-09-14T12:20:23;16.02;;;5.70;;
59486;SDS011;45298;54.918;73.504;2022-09-14T12:25:32;13.82;;;5.70;;
59486;SDS011;45298;54.918;73.504;2022-09-14T12:28:17;34.92;;;10.35;;
59486;SDS011;45298;54.918;73.504;2022-09-14T12:36:11;31.63;;;9.60;;
59486;SDS011;45298;54.918;73.504;2022-09-14T12:39:09;27.10;;;6.53;;
59486;SDS011;45298;54.918;73.504;2022-09-14T12:44:42;23.30;;;7.28;;
59486;SDS011;45298;54.918;73.504;2022-09-14T12:49:52;28.55;;;7.78;;
59486;SDS011;45298;54.918;73.504;2022-09-14T12:58:28;22.92;;;6.70;;
59486;SDS011;45298;54.918;73.504;2022-09-14T13:03:46;25.25;;;6.68;;
59486;SDS011;45298;54.918;73.504;2022-09-14T13:06:18;21.02;;;7.57;;
59486;SDS011;45298;54.918;73.504;2022-09-14T13:08:53;91.47;;;18.98;;
59486;SDS011;45298;54.918;73.504;2022-09-14T13:11:32;32.97;;;10.90;;
59486;SDS011;45298;54.918;73.504;2022-09-14T13:14:10;35.40;;;13.02;;
59486;SDS011;45298;54.918;73.504;2022-09-14T13:16:46;18.55;;;6.30;;
59486;SDS011;45298;54.918;73.504;2022-09-14T13:21:53;20.85;;;6.32;;
59486;SDS011;45298;54.918;73.504;2022-09-14T13:26:56;20.42;;;6.13;;
59486;SDS011;45298;54.918;73.504;2022-09-14T13:29:28;44.08;;;7.05;;
59486;SDS011;45298;54.918;73.504;2022-09-14T13:31:58;54.13;;;9.65;;
59486;SDS011;45298;54.918;73.504;2022-09-14T13:34:32;25.92;;;6.57;;
59486;SDS011;45298;54.918;73.504;2022-09-14T13:37:05;23.95;;;6.07;;
59486;SDS011;45298;54.918;73.504;2022-09-14T13:39:36;22.52;;;6.32;;
59486;SDS011;45298;54.918;73.504;2022-09-14T13:42:08;21.85;;;6.43;;
59486;SDS011;45298;54.918;73.504;2022-09-14T13:44:40;33.47;;;8.30;;
59486;SDS011;45298;54.918;73.504;2022-09-14T13:47:21;18.02;;;5.65;;
59486;SDS011;45298;54.918;73.504;2022-09-14T13:49:52;24.73;;;9.20;;
59486;SDS011;45298;54.918;73.504;2022-09-14T14:00:51;73.45;;;33.42;;
59486;SDS011;45298;54.918;73.504;2022-09-14T14:03:38;45.80;;;20.10;;
59486;SDS011;45298;54.918;73.504;2022-09-14T14:06:21;41.22;;;16.98;;
59486;SDS011;45298;54.918;73.504;2022-09-14T14:09:01;24.13;;;9.93;;
59486;SDS011;45298;54.918;73.504;2022-09-14T14:11:39;40.92;;;17.77;;
59486;SDS011;45298;54.918;73.504;2022-09-14T14:19:41;84.07;;;41.72;;
59486;SDS011;45298;54.918;73.504;2022-09-14T14:22:14;70.38;;;32.53;;
59486;SDS011;45298;54.918;73.504;2022-09-14T14:24:44;127.25;;;52.58;;
59486;SDS011;45298;54.918;73.504;2022-09-14T14:27:36;293.42;;;155.45;;
59486;SDS011;45298;54.918;73.504;2022-09-14T14:30:18;92.65;;;40.78;;
59486;SDS011;45298;54.918;73.504;2022-09-14T14:32:49;129.02;;;58.60;;
59486;SDS011;45298;54.918;73.504;2022-09-14T14:35:20;145.88;;;67.00;;
59486;SDS011;45298;54.918;73.504;2022-09-14T14:37:53;108.85;;;42.85;;
59486;SDS011;45298;54.918;73.504;2022-09-14T14:40:23;117.35;;;46.25;;
59486;SDS011;45298;54.918;73.504;2022-09-14T14:42:57;113.00;;;43.40;;
59486;SDS011;45298;54.918;73.504;2022-09-14T14:45:30;86.97;;;35.15;;
59486;SDS011;45298;54.918;73.504;2022-09-14T14:48:02;275.25;;;138.00;;
59486;SDS011;45298;54.918;73.504;2022-09-14T14:50:32;104.97;;;43.97;;
59486;SDS011;45298;54.918;73.504;2022-09-14T14:53:03;135.02;;;54.90;;
59486;SDS011;45298;54.918;73.504;2022-09-14T14:55:32;255.30;;;133.07;;
59486;SDS011;45298;54.918;73.504;2022-09-14T14:58:03;151.73;;;66.57;;
59486;SDS011;45298;54.918;73.504;2022-09-14T15:00:37;155.20;;;71.40;;
59486;SDS011;45298;54.918;73.504;2022-09-14T15:03:06;156.02;;;69.45;;
59486;SDS011;45298;54.918;73.504;2022-09-14T15:05:39;122.25;;;52.63;;
59486;SDS011;45298;54.918;73.504;2022-09-14T15:08:10;97.87;;;39.83;;
59486;SDS011;45298;54.918;73.504;2022-09-14T15:10:41;89.53;;;40.88;;
59486;SDS011;45298;54.918;73.504;2022-09-14T15:13:11;88.47;;;37.45;;
59486;SDS011;45298;54.918;73.504;2022-09-14T15:15:45;63.45;;;26.00;;
59486;SDS011;45298;54.918;73.504;2022-09-14T15:18:15;65.35;;;29.20;;
59486;SDS011;45298;54.918;73.504;2022-09-14T15:20:44;58.45;;;27.67;;
59486;SDS011;45298;54.918;73.504;2022-09-14T15:23:13;81.97;;;37.55;;
59486;SDS011;45298;54.918;73.504;2022-09-14T15:25:42;66.45;;;30.65;;
59486;SDS011;45298;54.918;73.504;2022-09-14T15:28:12;59.08;;;26.35;;
59486;SDS011;45298;54.918;73.504;2022-09-14T15:30:43;66.18;;;26.70;;
59486;SDS011;45298;54.918;73.504;2022-09-14T15:33:13;69.95;;;29.67;;
59486;SDS011;45298;54.918;73.504;2022-09-14T15:35:42;53.85;;;23.55;;
59486;SDS011;45298;54.918;73.504;2022-09-14T15:38:11;54.42;;;24.33;;
59486;SDS011;45298;54.918;73.504;2022-09-14T15:40:41;135.77;;;61.88;;
59486;SDS011;45298;54.918;73.504;2022-09-14T15:43:10;59.08;;;23.58;;
59486;SDS011;45298;54.918;73.504;2022-09-14T15:45:41;64.28;;;27.83;;
59486;SDS011;45298;54.918;73.504;2022-09-14T15:48:13;98.75;;;38.50;;
59486;SDS011;45298;54.918;73.504;2022-09-14T15:50:44;57.60;;;23.30;;
59486;SDS011;45298;54.918;73.504;2022-09-14T15:53:14;204.30;;;104.78;;
59486;SDS011;45298;54.918;73.504;2022-09-14T15:55:45;48.72;;;22.20;;
59486;SDS011;45298;54.918;73.504;2022-09-14T15:58:13;57.25;;;22.15;;
59486;SDS011;45298;54.918;73.504;2022-09-14T16:00:42;40.42;;;19.08;;
59486;SDS011;45298;54.918;73.504;2022-09-14T16:03:12;45.95;;;22.08;;
59486;SDS011;45298;54.918;73.504;2022-09-14T16:05:40;84.97;;;38.97;;
59486;SDS011;45298;54.918;73.504;2022-09-14T16:08:11;121.00;;;55.22;;
59486;SDS011;45298;54.918;73.504;2022-09-14T16:10:40;36.30;;;17.77;;
59486;SDS011;45298;54.918;73.504;2022-09-14T16:13:09;38.67;;;17.98;;
59486;SDS011;45298;54.918;73.504;2022-09-14T16:15:38;60.83;;;28.75;;
59486;SDS011;45298;54.918;73.504;2022-09-14T16:18:06;55.33;;;23.92;;
59486;SDS011;45298;54.918;73.504;2022-09-14T16:20:36;59.03;;;26.10;;
59486;SDS011;45298;54.918;73.504;2022-09-14T16:23:04;75.75;;;32.85;;
59486;SDS011;45298;54.918;73.504;2022-09-14T16:25:36;70.57;;;33.53;;
59486;SDS011;45298;54.918;73.504;2022-09-14T16:28:08;32.67;;;16.92;;
59486;SDS011;45298;54.918;73.504;2022-09-14T16:30:40;37.50;;;14.60;;
59486;SDS011;45298;54.918;73.504;2022-09-14T16:33:09;31.08;;;15.52;;
59486;SDS011;45298;54.918;73.504;2022-09-14T16:35:37;32.35;;;15.23;;
59486;SDS011;45298;54.918;73.504;2022-09-14T16:38:06;27.42;;;14.02;;
59486;SDS011;45298;54.918;73.504;2022-09-14T16:40:35;35.03;;;14.90;;
59486;SDS011;45298;54.918;73.504;2022-09-14T16:43:08;38.38;;;17.42;;
59486;SDS011;45298;54.918;73.504;2022-09-14T16:45:37;33.88;;;14.75;;
59486;SDS011;45298;54.918;73.504;2022-09-14T16:48:06;40.13;;;14.65;;
59486;SDS011;45298;54.918;73.504;2022-09-14T16:50:35;27.20;;;14.05;;
59486;SDS011;45298;54.918;73.504;2022-09-14T16:53:03;32.78;;;15.60;;
59486;SDS011;45298;54.918;73.504;2022-09-14T16:55:32;31.98;;;14.40;;
59486;SDS011;45298;54.918;73.504;2022-09-14T16:58:01;38.72;;;14.40;;
59486;SDS011;45298;54.918;73.504;2022-09-14T17:00:29;37.10;;;14.18;;
59486;SDS011;45298;54.918;73.504;2022-09-14T17:02:58;33.75;;;16.20;;
59486;SDS011;45298;54.918;73.504;2022-09-14T17:05:27;32.90;;;13.35;;
59486;SDS011;45298;54.918;73.504;2022-09-14T17:07:56;39.00;;;16.40;;
59486;SDS011;45298;54.918;73.504;2022-09-14T17:10:25;32.28;;;14.98;;
59486;SDS011;45298;54.918;73.504;2022-09-14T17:12:53;32.53;;;15.10;;
59486;SDS011;45298;54.918;73.504;2022-09-14T17:15:22;29.45;;;14.23;;
59486;SDS011;45298;54.918;73.504;2022-09-14T17:17:54;31.70;;;13.43;;
59486;SDS011;45298;54.918;73.504;2022-09-14T17:20:23;26.23;;;13.70;;
59486;SDS011;45298;54.918;73.504;2022-09-14T17:22:51;34.38;;;13.25;;